Time;durP1;ratioP1;P1;durP2;ratioP2;P2;SDS_P1;SDS_P2;PMS_P1;PMS_P2;Temp;Humidity;BMP_temperature;BMP_pressure;BME280_temperature;BME280_humidity;BME280_pressure;Samples;Min_cycle;Max_cycle;Signal;HPM_P1;HPM_P2
2022/05/05 00:00:38;;;;;;;8.75;6.18;;;7.60;99.90;;;;;;5064236;28;20156;-75
2022/05/05 00:03:04;;;;;;;9.02;6.22;;;7.60;99.90;;;;;;5046500;28;20410;-75
2022/05/05 00:05:29;;;;;;;10.07;6.70;;;7.60;99.90;;;;;;5064044;28;20443;-75
2022/05/05 00:07:55;;;;;;;8.98;6.63;;;7.50;99.90;;;;;;5029426;28;20048;-73
2022/05/05 00:15:49;;;;;;;8.63;6.60;;;7.50;99.90;;;;;;5047970;28;20052;-74
2022/05/05 00:18:15;;;;;;;8.75;6.65;;;7.40;99.90;;;;;;5041339;28;20041;-72
2022/05/05 00:20:42;;;;;;;9.68;6.13;;;7.40;99.90;;;;;;5047979;28;20047;-74
2022/05/05 00:23:08;;;;;;;11.23;6.97;;;7.30;99.90;;;;;;5030266;28;20072;-75
2022/05/05 00:25:34;;;;;;;9.75;6.45;;;7.30;99.90;;;;;;5046898;28;20049;-75
2022/05/05 00:27:59;;;;;;;9.73;6.65;;;7.80;99.90;;;;;;5064817;28;20049;-75
2022/05/05 00:30:25;;;;;;;9.82;6.82;;;7.30;99.90;;;;;;5030431;28;20048;-75
2022/05/05 00:32:51;;;;;;;10.73;7.15;;;7.30;99.90;;;;;;5048001;28;20060;-75
2022/05/05 00:35:16;;;;;;;11.77;7.05;;;7.20;99.90;;;;;;5029017;28;20446;-75
2022/05/05 00:37:42;;;;;;;12.65;6.82;;;7.20;99.90;;;;;;5031509;28;20076;-74
2022/05/05 00:40:08;;;;;;;10.63;6.55;;;7.20;99.90;;;;;;5045938;28;20127;-74
2022/05/05 00:42:36;;;;;;;11.57;7.30;;;7.20;99.90;;;;;;5029908;28;20037;-75
2022/05/05 00:45:02;;;;;;;8.93;6.55;;;7.20;99.90;;;;;;5047286;28;20052;-75
2022/05/05 00:47:27;;;;;;;10.40;7.32;;;7.10;99.90;;;;;;5028935;28;20059;-75
2022/05/05 00:49:53;;;;;;;9.57;7.05;;;7.10;99.90;;;;;;5029263;28;20044;-75
2022/05/05 00:52:19;;;;;;;8.88;6.72;;;7.00;99.90;;;;;;5046718;28;20060;-75
2022/05/05 00:54:45;;;;;;;11.23;7.03;;;7.30;99.90;;;;;;5041806;28;20036;-74
2022/05/05 00:57:13;;;;;;;10.80;6.70;;;7.00;99.90;;;;;;5039793;28;20095;-75
2022/05/05 00:59:40;;;;;;;9.68;6.63;;;7.00;99.90;;;;;;5030161;28;20439;-75
2022/05/05 01:02:06;;;;;;;9.63;6.72;;;6.90;99.90;;;;;;5044047;28;20051;-74
2022/05/05 01:04:32;;;;;;;9.80;6.82;;;6.90;99.90;;;;;;5063265;28;20041;-75
2022/05/05 01:06:59;;;;;;;9.52;6.60;;;6.20;99.90;;;;;;5063317;28;20055;-74
2022/05/05 01:09:26;;;;;;;11.65;6.55;;;6.80;99.90;;;;;;5039904;28;20130;-75
2022/05/05 01:11:51;;;;;;;11.80;7.28;;;6.80;99.90;;;;;;5063544;28;20048;-75
2022/05/05 01:14:17;;;;;;;11.82;7.18;;;6.80;99.90;;;;;;5045785;28;20662;-75
2022/05/05 01:16:43;;;;;;;11.00;6.93;;;6.80;99.90;;;;;;5047158;28;20469;-75
2022/05/05 01:19:09;;;;;;;10.05;6.18;;;6.80;99.90;;;;;;5047395;28;20045;-74
2022/05/05 01:21:35;;;;;;;9.90;6.50;;;6.80;99.90;;;;;;5028391;28;20041;-75
2022/05/05 01:24:00;;;;;;;9.73;6.32;;;7.60;99.90;;;;;;5046466;28;20448;-75
2022/05/05 01:29:14;;;;;;;12.13;6.07;;;6.70;99.90;;;;;;5064750;28;20049;-74
2022/05/05 01:31:43;;;;;;;8.93;6.07;;;6.70;99.90;;;;;;5065860;28;20120;-75
2022/05/05 01:34:08;;;;;;;10.52;6.30;;;6.70;99.90;;;;;;5084211;28;20084;-75
2022/05/05 01:36:34;;;;;;;12.60;6.38;;;6.70;99.90;;;;;;5067591;28;20069;-74
2022/05/05 01:39:00;;;;;;;9.88;6.70;;;6.70;99.90;;;;;;5034350;28;20049;-75
2022/05/05 01:41:26;;;;;;;10.23;5.97;;;6.70;99.90;;;;;;5032406;28;20080;-74
2022/05/05 01:43:51;;;;;;;10.02;6.55;;;6.80;99.90;;;;;;5033908;28;20041;-74
2022/05/05 01:46:17;;;;;;;12.52;7.00;;;6.60;99.90;;;;;;5050590;28;20045;-75
2022/05/05 01:48:43;;;;;;;9.65;6.40;;;6.60;99.90;;;;;;5049740;28;20549;-74
2022/05/05 01:51:09;;;;;;;11.88;6.75;;;6.60;99.90;;;;;;5025194;28;20047;-74
2022/05/05 01:53:37;;;;;;;10.25;6.78;;;6.50;99.90;;;;;;5033846;28;20040;-74
2022/05/05 01:56:06;;;;;;;7.47;6.20;;;6.50;99.90;;;;;;5065238;28;20122;-74
2022/05/05 01:58:31;;;;;;;8.50;6.53;;;6.50;99.90;;;;;;5042580;28;20045;-75
2022/05/05 02:00:58;;;;;;;9.82;6.60;;;6.50;99.90;;;;;;5066771;28;20045;-75
2022/05/05 02:03:23;;;;;;;10.07;6.32;;;7.60;99.90;;;;;;5049546;28;20087;-75
2022/05/05 02:05:49;;;;;;;8.10;5.55;;;6.50;99.90;;;;;;5067374;28;20138;-75
2022/05/05 02:08:15;;;;;;;14.00;6.43;;;6.50;99.90;;;;;;5040696;28;20459;-75
2022/05/05 02:10:41;;;;;;;10.50;6.95;;;6.50;99.90;;;;;;5050445;28;20057;-74
2022/05/05 02:13:07;;;;;;;8.43;5.75;;;6.40;99.90;;;;;;5048610;28;20139;-74
2022/05/05 02:15:34;;;;;;;10.35;6.40;;;6.40;99.90;;;;;;5050031;28;20045;-74
2022/05/05 02:18:11;;;;;;;9.20;5.90;;;7.50;99.90;;;;;;5066016;28;20048;-75
2022/05/05 02:20:38;;;;;;;9.35;6.13;;;6.40;99.90;;;;;;5050120;28;20056;-74
2022/05/05 02:23:05;;;;;;;11.40;6.72;;;6.30;99.90;;;;;;5026034;28;20089;-74
2022/05/05 02:25:31;;;;;;;11.60;6.57;;;6.30;99.90;;;;;;5082545;28;20198;-74
2022/05/05 02:27:57;;;;;;;9.98;6.90;;;6.30;99.90;;;;;;5032437;28;20124;-74
2022/05/05 02:30:24;;;;;;;9.13;6.60;;;6.30;99.90;;;;;;5049560;28;20171;-74
2022/05/05 02:32:50;;;;;;;8.30;6.63;;;6.30;99.90;;;;;;5065652;28;20056;-75
2022/05/05 02:35:18;;;;;;;10.02;6.47;;;6.30;99.90;;;;;;5047422;28;20598;-74
2022/05/05 02:40:28;;;;;;;9.38;6.07;;;6.20;99.90;;;;;;5049376;28;20107;-75
2022/05/05 02:42:58;;;;;;;11.52;7.18;;;6.20;99.90;;;;;;5028193;28;20076;-74
2022/05/05 02:45:24;;;;;;;8.68;6.75;;;6.20;99.90;;;;;;5049589;28;20102;-73
2022/05/05 02:47:50;;;;;;;11.65;7.47;;;6.20;99.90;;;;;;5080486;28;20080;-74
2022/05/05 02:50:17;;;;;;;9.52;6.97;;;6.20;99.90;;;;;;5048999;28;20335;-74
2022/05/05 02:52:42;;;;;;;10.77;6.78;;;6.20;99.90;;;;;;5081481;28;20072;-74
2022/05/05 02:55:08;;;;;;;10.00;7.22;;;6.10;99.90;;;;;;5048084;28;20080;-74
2022/05/05 02:57:35;;;;;;;11.43;7.90;;;6.20;99.90;;;;;;5062480;28;20041;-74
2022/05/05 03:00:03;;;;;;;13.40;7.68;;;7.10;99.90;;;;;;5048127;28;20570;-74
2022/05/05 03:02:29;;;;;;;10.98;7.72;;;6.20;99.90;;;;;;5048008;28;20367;-73
2022/05/05 03:04:54;;;;;;;13.10;8.45;;;6.20;99.90;;;;;;5049169;28;20052;-74
2022/05/05 03:07:22;;;;;;;12.73;8.73;;;6.20;99.90;;;;;;5031398;28;20057;-74
2022/05/05 03:09:47;;;;;;;10.10;7.90;;;6.00;99.90;;;;;;5081511;28;20927;-74
2022/05/05 03:12:13;;;;;;;12.63;8.57;;;7.20;99.90;;;;;;5063148;28;20056;-74
2022/05/05 03:14:39;;;;;;;12.65;8.52;;;6.80;99.90;;;;;;5065533;28;20140;-74
2022/05/05 03:17:05;;;;;;;11.32;7.93;;;6.30;99.90;;;;;;5047999;28;20057;-74
2022/05/05 03:19:31;;;;;;;10.35;7.95;;;6.30;99.90;;;;;;5025155;28;20499;-74
2022/05/05 03:21:57;;;;;;;12.30;8.25;;;6.40;99.90;;;;;;5030171;28;20064;-74
2022/05/05 03:24:23;;;;;;;10.70;8.63;;;6.40;99.90;;;;;;5030167;28;20057;-74
2022/05/05 03:26:49;;;;;;;10.30;8.20;;;6.40;99.90;;;;;;5048878;28;20543;-73
2022/05/05 03:29:15;;;;;;;12.00;8.10;;;5.40;99.90;;;;;;5047098;28;20095;-74
2022/05/05 03:31:41;;;;;;;13.50;8.35;;;6.40;99.90;;;;;;5031717;28;20075;-74
2022/05/05 03:34:07;;;;;;;11.85;8.10;;;6.40;99.90;;;;;;5063886;28;20063;-74
2022/05/05 03:36:33;;;;;;;13.52;8.68;;;6.40;99.90;;;;;;5047790;28;20394;-74
2022/05/05 03:38:59;;;;;;;11.45;8.45;;;5.10;99.90;;;;;;5046134;28;20498;-74
2022/05/05 03:41:25;;;;;;;14.13;8.90;;;6.40;99.90;;;;;;5031570;28;20056;-74
2022/05/05 03:43:52;;;;;;;14.38;8.85;;;6.50;99.90;;;;;;5023463;28;20490;-74
2022/05/05 03:46:18;;;;;;;11.88;8.52;;;6.60;99.90;;;;;;5030033;28;20098;-74
2022/05/05 03:48:44;;;;;;;17.38;8.85;;;6.50;99.90;;;;;;5064213;28;20049;-74
2022/05/05 03:51:10;;;;;;;12.05;8.10;;;6.50;99.90;;;;;;5029690;28;20107;-74
2022/05/05 03:53:36;;;;;;;9.82;8.25;;;6.50;99.90;;;;;;5030063;28;20088;-74
2022/05/05 03:56:04;;;;;;;10.85;8.90;;;6.50;99.90;;;;;;5046815;28;20045;-74
2022/05/05 03:58:29;;;;;;;11.95;8.98;;;6.50;99.90;;;;;;5030268;28;20056;-73
2022/05/05 04:00:55;;;;;;;13.77;8.38;;;6.50;99.90;;;;;;5046786;28;20308;-73
2022/05/05 04:03:33;;;;;;;11.25;8.23;;;6.50;99.90;;;;;;5046544;28;20045;-74
2022/05/05 04:06:04;;;;;;;10.80;7.90;;;6.60;99.90;;;;;;5033109;28;20136;-76
2022/05/05 04:08:31;;;;;;;12.50;8.85;;;6.60;99.90;;;;;;5022300;28;20064;-74
2022/05/05 04:10:57;;;;;;;11.10;7.57;;;6.60;99.90;;;;;;5031348;28;20053;-73
2022/05/05 04:13:25;;;;;;;10.18;7.47;;;6.70;99.90;;;;;;5062227;28;20092;-73
2022/05/05 04:15:51;;;;;;;11.85;7.93;;;6.70;99.90;;;;;;5049771;28;20083;-73
2022/05/05 04:18:17;;;;;;;10.35;8.07;;;6.70;99.90;;;;;;5026252;28;20139;-74
2022/05/05 04:20:43;;;;;;;10.88;8.00;;;7.00;99.90;;;;;;5063081;28;20632;-74
2022/05/05 04:23:10;;;;;;;12.07;8.60;;;6.70;99.90;;;;;;5045621;28;20061;-73
2022/05/05 04:25:40;;;;;;;12.77;8.70;;;6.70;99.90;;;;;;5064301;28;20053;-73
2022/05/05 04:28:10;;;;;;;9.25;7.65;;;7.30;99.90;;;;;;5047180;28;20103;-73
2022/05/05 04:30:38;;;;;;;12.10;8.40;;;6.80;99.90;;;;;;5044419;28;20131;-74
2022/05/05 04:33:04;;;;;;;11.07;7.85;;;6.80;99.90;;;;;;5045724;28;20494;-74
2022/05/05 04:35:30;;;;;;;17.92;9.68;;;6.80;99.90;;;;;;5047619;28;20053;-73
2022/05/05 04:37:56;;;;;;;12.27;8.40;;;6.80;99.90;;;;;;5047317;28;20048;-73
2022/05/05 04:40:22;;;;;;;13.73;9.07;;;6.90;99.90;;;;;;5045067;28;20033;-74
2022/05/05 04:42:49;;;;;;;12.98;8.35;;;6.90;99.90;;;;;;5028884;28;20041;-77
2022/05/05 04:45:15;;;;;;;12.45;8.65;;;7.00;99.90;;;;;;5045414;28;20045;-73
2022/05/05 04:47:41;;;;;;;10.32;8.38;;;7.00;99.90;;;;;;5078722;28;20106;-73
2022/05/05 04:50:07;;;;;;;13.25;8.48;;;7.00;99.90;;;;;;5047286;28;20057;-73
2022/05/05 04:52:33;;;;;;;12.75;9.35;;;7.10;99.90;;;;;;5080222;28;20076;-73
2022/05/05 04:54:59;;;;;;;11.30;8.88;;;7.10;99.90;;;;;;5045567;28;20068;-73
2022/05/05 04:57:26;;;;;;;11.85;8.30;;;7.10;99.90;;;;;;5061370;28;20211;-70
2022/05/05 04:59:52;;;;;;;13.30;8.45;;;7.10;99.90;;;;;;5045792;28;20048;-73
2022/05/05 05:02:17;;;;;;;9.18;7.47;;;7.20;99.90;;;;;;5079771;28;20112;-70
2022/05/05 05:04:43;;;;;;;12.85;8.98;;;8.00;99.90;;;;;;5051525;28;20116;-74
2022/05/05 05:07:09;;;;;;;11.77;8.60;;;7.20;99.90;;;;;;5051389;28;20040;-74
2022/05/05 05:09:35;;;;;;;15.32;9.27;;;7.20;99.90;;;;;;5051187;28;20118;-73
2022/05/05 05:12:01;;;;;;;12.68;8.85;;;7.30;99.90;;;;;;5034409;28;20106;-73
2022/05/05 05:14:27;;;;;;;11.52;8.82;;;7.30;99.90;;;;;;5033064;28;20052;-73
2022/05/05 05:16:53;;;;;;;12.88;8.27;;;7.40;99.90;;;;;;5034380;28;20040;-73
2022/05/05 05:19:19;;;;;;;12.90;8.65;;;7.40;99.90;;;;;;5083392;28;20057;-74
2022/05/05 05:21:45;;;;;;;11.52;8.93;;;7.50;99.90;;;;;;5048049;28;20433;-73
2022/05/05 05:24:11;;;;;;;12.38;8.88;;;7.50;99.90;;;;;;5048062;28;20053;-73
2022/05/05 05:26:37;;;;;;;11.73;8.52;;;7.60;99.90;;;;;;5033617;28;20494;-73
2022/05/05 05:29:02;;;;;;;13.45;7.97;;;7.60;99.90;;;;;;5050745;28;20079;-74
2022/05/05 05:31:30;;;;;;;10.95;8.10;;;7.70;99.90;;;;;;5032389;28;20068;-73
2022/05/05 05:33:56;;;;;;;11.50;8.48;;;7.80;99.90;;;;;;5035094;28;20518;-74
2022/05/05 05:36:22;;;;;;;11.35;8.13;;;7.90;99.90;;;;;;5083424;28;20045;-73
2022/05/05 05:38:47;;;;;;;11.25;8.30;;;8.00;99.90;;;;;;5050109;28;20437;-74
2022/05/05 05:41:13;;;;;;;11.25;7.80;;;8.00;99.90;;;;;;5033081;28;20045;-72
2022/05/05 05:43:39;;;;;;;11.75;7.75;;;8.00;99.90;;;;;;5050639;28;20545;-74
2022/05/05 05:46:05;;;;;;;12.15;8.00;;;8.10;99.90;;;;;;5068280;28;20045;-73
2022/05/05 05:48:31;;;;;;;12.25;7.80;;;8.20;99.90;;;;;;5050541;28;20053;-74
2022/05/05 05:50:56;;;;;;;12.82;8.48;;;8.30;99.90;;;;;;5084179;28;20498;-77
2022/05/05 05:53:22;;;;;;;9.35;7.00;;;8.30;99.90;;;;;;5031729;28;20107;-74
2022/05/05 05:55:48;;;;;;;11.68;8.20;;;8.50;99.90;;;;;;5033623;28;20049;-74
2022/05/05 05:58:14;;;;;;;10.98;7.78;;;8.50;99.90;;;;;;5032269;28;20048;-73
2022/05/05 06:00:40;;;;;;;11.35;8.02;;;8.60;99.90;;;;;;5049166;28;20451;-73
2022/05/05 06:05:50;;;;;;;10.90;8.13;;;8.80;99.90;;;;;;5082550;28;20067;-72
2022/05/05 06:08:16;;;;;;;11.48;8.38;;;8.90;99.90;;;;;;5050410;28;20045;-73
2022/05/05 06:10:42;;;;;;;11.38;7.90;;;9.00;99.90;;;;;;5042184;28;20059;-73
2022/05/05 06:13:08;;;;;;;13.50;7.65;;;9.00;99.90;;;;;;5064553;28;20106;-77
2022/05/05 06:15:34;;;;;;;9.65;7.15;;;9.00;99.90;;;;;;5049386;28;20051;-74
2022/05/05 06:17:59;;;;;;;12.40;7.10;;;9.10;99.90;;;;;;5050007;28;20052;-74
2022/05/05 06:20:25;;;;;;;11.88;8.07;;;9.20;99.90;;;;;;5048187;28;20136;-73
2022/05/05 06:22:51;;;;;;;10.90;7.70;;;9.30;99.90;;;;;;5048194;28;20784;-74
2022/05/05 06:25:20;;;;;;;13.38;7.15;;;9.30;99.90;;;;;;5082518;28;20488;-74
2022/05/05 06:27:46;;;;;;;9.57;6.78;;;9.40;99.90;;;;;;5049654;28;20107;-73
2022/05/05 06:30:13;;;;;;;11.98;7.72;;;9.50;99.90;;;;;;5049676;28;20048;-74
2022/05/05 06:32:40;;;;;;;9.35;6.88;;;9.60;99.90;;;;;;5050187;28;20398;-74
2022/05/05 06:35:06;;;;;;;10.23;7.30;;;9.70;99.90;;;;;;5049145;28;20045;-73
2022/05/05 06:37:32;;;;;;;11.63;6.68;;;9.80;99.90;;;;;;5065315;28;20052;-74
2022/05/05 06:39:58;;;;;;;14.43;7.20;;;9.90;99.90;;;;;;5066170;28;20479;-73
2022/05/05 06:42:24;;;;;;;12.80;6.97;;;10.00;99.90;;;;;;5028485;28;20505;-74
2022/05/05 06:44:49;;;;;;;13.45;7.07;;;10.00;99.90;;;;;;5049452;28;20048;-74
2022/05/05 06:47:15;;;;;;;8.85;6.30;;;10.10;99.90;;;;;;5065373;28;20041;-74
2022/05/05 06:49:41;;;;;;;12.77;6.53;;;10.10;99.90;;;;;;5032142;28;20045;-74
2022/05/05 06:52:07;;;;;;;11.00;6.53;;;10.20;99.90;;;;;;5048943;28;20052;-74
2022/05/05 06:54:33;;;;;;;11.25;6.85;;;10.30;99.90;;;;;;5048768;28;20053;-74
2022/05/05 06:56:59;;;;;;;8.80;6.63;;;10.40;99.90;;;;;;5049150;28;20107;-74
2022/05/05 06:59:25;;;;;;;8.88;5.80;;;10.40;99.90;;;;;;5081115;28;20124;-75
2022/05/05 07:01:54;;;;;;;7.68;6.03;;;10.50;99.90;;;;;;5047854;28;20136;-75
2022/05/05 07:07:10;;;;;;;13.98;6.50;;;10.70;99.90;;;;;;5082477;28;20056;-75
2022/05/05 07:12:20;;;;;;;9.52;6.38;;;10.90;99.90;;;;;;5080930;28;20060;-75
2022/05/05 07:14:46;;;;;;;8.75;6.10;;;11.00;99.90;;;;;;5047367;28;20098;-74
2022/05/05 07:17:12;;;;;;;10.02;5.72;;;11.10;99.90;;;;;;5028052;28;20412;-76
2022/05/05 07:19:39;;;;;;;8.95;6.22;;;11.20;99.90;;;;;;5030376;28;20513;-75
2022/05/05 07:22:06;;;;;;;11.02;6.30;;;11.30;99.90;;;;;;5063130;28;20078;-74
2022/05/05 07:24:32;;;;;;;12.45;6.72;;;11.40;99.90;;;;;;5045303;28;20668;-75
2022/05/05 07:26:59;;;;;;;9.52;5.95;;;11.40;99.90;;;;;;5048068;28;20060;-75
2022/05/05 07:29:24;;;;;;;8.40;6.47;;;11.50;99.90;;;;;;5046666;28;20183;-76
2022/05/05 07:31:50;;;;;;;11.50;6.28;;;11.60;99.90;;;;;;5047603;28;20135;-75
2022/05/05 07:34:18;;;;;;;8.68;6.45;;;11.60;99.90;;;;;;5042719;28;20084;-74
2022/05/05 07:36:44;;;;;;;10.32;6.05;;;11.80;99.90;;;;;;5048178;28;20079;-74
2022/05/05 07:39:10;;;;;;;9.18;6.25;;;11.80;99.90;;;;;;5081942;28;20056;-70
2022/05/05 07:41:36;;;;;;;8.98;6.20;;;11.90;99.90;;;;;;5048376;28;20048;-75
2022/05/05 07:44:05;;;;;;;8.25;6.20;;;12.00;99.90;;;;;;5031137;28;20049;-74
2022/05/05 07:46:35;;;;;;;9.95;5.63;;;12.10;99.90;;;;;;5048242;28;20557;-74
2022/05/05 07:49:01;;;;;;;12.00;6.70;;;12.20;99.90;;;;;;5040874;28;20053;-74
2022/05/05 07:51:28;;;;;;;9.07;6.30;;;12.30;99.90;;;;;;5047661;28;20053;-76
2022/05/05 07:56:39;;;;;;;11.65;6.38;;;12.40;99.90;;;;;;5067809;28;20056;-76
2022/05/05 07:59:05;;;;;;;10.05;6.13;;;12.50;99.90;;;;;;5046678;28;20048;-74
2022/05/05 08:01:31;;;;;;;10.05;6.40;;;12.60;99.90;;;;;;5046622;28;20417;-77
2022/05/05 08:03:56;;;;;;;8.45;6.15;;;12.70;99.90;;;;;;5046813;28;20041;-78
2022/05/05 08:06:22;;;;;;;9.35;5.70;;;12.90;99.90;;;;;;5065575;28;20132;-78
2022/05/05 08:08:48;;;;;;;10.77;6.47;;;13.10;99.90;;;;;;5028996;28;20048;-76
2022/05/05 08:11:14;;;;;;;9.18;5.78;;;13.30;99.90;;;;;;5029783;28;20045;-77
2022/05/05 08:13:40;;;;;;;8.95;6.07;;;13.50;99.90;;;;;;5032457;28;20091;-79
2022/05/05 08:16:06;;;;;;;10.77;5.97;;;13.70;99.90;;;;;;5031421;28;20070;-75
2022/05/05 08:18:32;;;;;;;8.55;6.20;;;13.90;99.90;;;;;;5062639;28;20505;-77
2022/05/05 08:20:58;;;;;;;8.48;5.63;;;14.10;99.90;;;;;;5062196;28;20053;-75
2022/05/05 08:23:23;;;;;;;10.00;5.95;;;14.20;99.90;;;;;;5045688;28;20115;-77
2022/05/05 08:28:36;;;;;;;11.20;6.15;;;14.50;99.90;;;;;;5047651;28;20433;-76
2022/05/05 08:31:05;;;;;;;8.57;6.13;;;14.60;99.90;;;;;;5032393;28;20143;-76
2022/05/05 08:33:31;;;;;;;12.20;5.93;;;14.60;99.90;;;;;;5032582;28;20091;-76
2022/05/05 08:35:58;;;;;;;10.25;6.32;;;14.70;99.90;;;;;;5048819;28;20084;-76
2022/05/05 08:38:24;;;;;;;8.00;5.68;;;14.90;99.90;;;;;;5048842;28;20071;-76
2022/05/05 08:40:51;;;;;;;10.82;5.93;;;15.10;99.90;;;;;;5064901;28;20487;-79
2022/05/05 08:43:17;;;;;;;10.20;6.07;;;15.20;99.90;;;;;;5084872;28;20405;-77
2022/05/05 08:45:45;;;;;;;8.57;6.10;;;15.30;99.90;;;;;;5045098;28;20048;-76
2022/05/05 08:48:12;;;;;;;11.85;6.75;;;15.40;99.90;;;;;;5054155;28;20056;-77
2022/05/05 08:50:40;;;;;;;8.48;5.75;;;15.60;99.90;;;;;;5042603;28;20033;-76
2022/05/05 08:53:07;;;;;;;10.60;5.72;;;15.90;99.90;;;;;;5048092;28;20106;-76
2022/05/05 08:55:34;;;;;;;8.52;6.07;;;16.10;99.90;;;;;;5062656;28;20048;-75
2022/05/05 08:58:00;;;;;;;11.50;5.70;;;16.30;99.90;;;;;;5030770;28;20052;-75
2022/05/05 09:00:27;;;;;;;8.50;4.88;;;16.40;99.90;;;;;;5046136;28;20577;-76
2022/05/05 09:02:59;;;;;;;9.70;5.70;;;16.50;99.90;;;;;;5041338;28;20448;-75
2022/05/05 09:05:44;;;;;;;11.18;5.65;;;16.50;99.90;;;;;;5046445;28;20045;-76
2022/05/05 09:08:13;;;;;;;8.07;5.72;;;16.60;99.90;;;;;;5030087;28;20055;-76
2022/05/05 09:10:43;;;;;;;11.10;6.10;;;16.60;99.90;;;;;;5038000;28;20566;-84
2022/05/05 09:13:09;;;;;;;9.43;6.43;;;16.60;99.90;;;;;;5046017;28;20044;-76
2022/05/05 09:15:36;;;;;;;11.45;6.97;;;16.70;99.90;;;;;;5046817;28;20057;-76
2022/05/05 09:18:15;;;;;;;10.38;6.15;;;16.90;99.90;;;;;;5062264;28;20057;-76
2022/05/05 09:20:43;;;;;;;9.65;6.57;;;16.90;99.90;;;;;;5045555;28;20126;-77
2022/05/05 09:23:10;;;;;;;12.82;6.25;;;17.00;99.90;;;;;;5079059;28;20156;-76
2022/05/05 09:25:46;;;;;;;9.05;5.60;;;17.20;99.90;;;;;;5045568;28;20063;-78
2022/05/05 09:28:20;;;;;;;9.02;5.38;;;17.40;99.90;;;;;;5062044;28;20481;-78
2022/05/05 09:30:53;;;;;;;9.02;6.82;;;17.50;99.90;;;;;;5029632;28;20049;-78
2022/05/05 09:33:34;;;;;;;9.60;5.57;;;17.60;99.90;;;;;;5028131;28;20095;-78
2022/05/05 09:36:14;;;;;;;10.77;6.75;;;17.80;99.90;;;;;;5067877;28;20234;-77
2022/05/05 09:39:00;;;;;;;9.95;5.60;;;17.90;99.90;;;;;;5046165;28;20855;-76
2022/05/05 09:41:32;;;;;;;10.07;5.43;;;18.10;99.90;;;;;;5029742;28;20055;-76
2022/05/05 09:44:00;;;;;;;8.93;5.72;;;18.10;99.90;;;;;;5021090;28;20526;-76
2022/05/05 09:46:26;;;;;;;10.15;6.32;;;18.30;99.90;;;;;;5027694;28;20074;-77
2022/05/05 09:48:52;;;;;;;9.02;6.35;;;18.50;99.90;;;;;;5047267;28;20053;-76
2022/05/05 09:51:19;;;;;;;11.52;6.53;;;18.50;99.90;;;;;;5025819;28;20052;-77
2022/05/05 09:59:20;;;;;;;9.55;7.35;;;18.20;99.90;;;;;;5036645;28;20089;-76
2022/05/05 10:01:51;;;;;;;10.40;6.32;;;18.10;99.90;;;;;;5083636;28;20048;-76
2022/05/05 10:04:21;;;;;;;9.85;6.05;;;18.00;99.90;;;;;;5030602;28;20106;-76
2022/05/05 10:06:48;;;;;;;10.65;6.35;;;18.00;99.90;;;;;;5050248;28;20060;-76
2022/05/05 10:09:16;;;;;;;11.40;7.15;;;18.10;99.90;;;;;;5065977;28;20087;-76
2022/05/05 10:11:42;;;;;;;11.30;6.00;;;18.10;99.90;;;;;;5032904;28;20302;-76
2022/05/05 10:14:10;;;;;;;11.80;6.80;;;18.20;99.90;;;;;;5049102;28;20053;-76
2022/05/05 10:16:41;;;;;;;8.57;6.68;;;18.10;99.90;;;;;;5031540;28;20551;-76
2022/05/05 10:19:08;;;;;;;11.07;7.55;;;18.20;99.90;;;;;;5050962;28;20041;-76
2022/05/05 10:21:40;;;;;;;13.27;7.88;;;18.30;99.90;;;;;;5023901;28;20081;-76
2022/05/05 10:24:30;;;;;;;10.90;6.95;;;18.60;99.90;;;;;;5030839;28;20057;-76
2022/05/05 10:26:58;;;;;;;12.23;7.07;;;18.70;99.90;;;;;;5066202;28;20053;-76
2022/05/05 10:29:40;;;;;;;12.55;7.68;;;18.80;99.90;;;;;;5042810;28;20394;-77
2022/05/05 10:32:16;;;;;;;10.43;8.27;;;19.00;99.90;;;;;;5024635;28;20053;-76
2022/05/05 10:35:12;;;;;;;14.57;9.10;;;19.10;99.80;;;;;;5048254;28;20131;-76
2022/05/05 10:37:38;;;;;;;13.00;8.45;;;19.10;99.60;;;;;;5049504;28;20460;-76
2022/05/05 10:40:08;;;;;;;13.75;8.50;;;19.10;99.90;;;;;;5025615;28;20052;-77
2022/05/05 10:42:40;;;;;;;13.48;8.27;;;19.00;99.90;;;;;;5025062;28;20490;-76
2022/05/05 10:45:28;;;;;;;12.30;8.65;;;19.10;99.90;;;;;;5047510;28;20734;-79
2022/05/05 10:47:58;;;;;;;14.65;9.85;;;19.10;99.90;;;;;;5033472;28;20401;-75
2022/05/05 10:50:49;;;;;;;13.63;10.45;;;19.10;99.90;;;;;;5050060;28;20561;-75
2022/05/05 10:53:47;;;;;;;13.60;10.85;;;19.30;99.90;;;;;;5060123;28;20053;-76
2022/05/05 10:56:31;;;;;;;14.38;11.85;;;19.30;99.90;;;;;;5020317;28;20060;-77
2022/05/05 10:59:06;;;;;;;17.27;12.98;;;19.10;99.90;;;;;;5049704;28;20048;-76
2022/05/05 11:01:41;;;;;;;15.98;11.75;;;18.90;99.90;;;;;;5080899;28;20513;-76
2022/05/05 11:04:32;;;;;;;15.40;13.10;;;18.90;99.90;;;;;;5032386;28;20061;-76
2022/05/05 11:07:20;;;;;;;17.88;13.20;;;18.90;99.90;;;;;;5032965;28;20049;-76
2022/05/05 11:09:46;;;;;;;17.25;12.15;;;18.90;99.90;;;;;;5064431;28;20129;-77
2022/05/05 11:12:21;;;;;;;19.98;15.15;;;19.00;99.90;;;;;;5066271;28;20425;-74
2022/05/05 11:23:49;;;;;;;20.50;13.88;;;19.40;99.90;;;;;;5048114;28;20049;-76
2022/05/05 11:26:19;;;;;;;18.92;13.80;;;19.50;99.90;;;;;;5050263;28;20049;-77
2022/05/05 11:28:47;;;;;;;21.60;14.82;;;19.40;99.90;;;;;;5069066;28;20045;-76
2022/05/05 11:31:22;;;;;;;20.38;13.73;;;19.30;99.90;;;;;;5067440;28;20057;-76
2022/05/05 11:33:59;;;;;;;;;;;19.40;99.90;;;;;;5065663;28;20330;-76
2022/05/05 11:36:37;;;;;;;16.77;13.73;;;19.50;99.90;;;;;;5082481;28;20290;-75
2022/05/05 11:39:03;;;;;;;19.15;14.13;;;19.60;99.90;;;;;;5048546;28;20060;-75
2022/05/05 11:41:30;;;;;;;20.27;13.63;;;19.60;99.90;;;;;;5039596;28;20102;-78
2022/05/05 11:46:40;;;;;;;19.52;13.88;;;19.60;99.90;;;;;;5083533;28;20057;-76
2022/05/05 11:49:08;;;;;;;16.17;11.70;;;19.50;99.90;;;;;;5049385;28;20052;-76
2022/05/05 11:51:35;;;;;;;15.55;12.07;;;19.50;99.90;;;;;;5034011;28;20048;-76
2022/05/05 11:54:08;;;;;;;19.92;13.38;;;19.70;99.90;;;;;;5058068;28;20044;-76
2022/05/05 11:56:35;;;;;;;16.50;12.00;;;19.80;99.90;;;;;;5048082;28;20080;-76
2022/05/05 12:02:04;;;;;;;18.65;11.80;;;19.90;99.70;;;;;;5081352;28;20080;-76
2022/05/05 12:04:32;;;;;;;20.92;13.05;;;19.90;99.90;;;;;;5047681;28;20084;-77
2022/05/05 12:06:59;;;;;;;17.50;11.80;;;20.10;99.70;;;;;;5030793;28;20128;-76
2022/05/05 12:09:26;;;;;;;16.88;11.75;;;20.40;99.70;;;;;;5046265;28;20053;-76
2022/05/05 12:11:53;;;;;;;16.55;11.90;;;20.70;99.30;;;;;;5047593;28;20124;-76
2022/05/05 12:14:23;;;;;;;17.55;12.80;;;20.80;98.90;;;;;;5031046;28;20061;-76
2022/05/05 12:16:50;;;;;;;17.98;12.77;;;21.00;98.50;;;;;;5080917;28;20053;-75
2022/05/05 12:19:19;;;;;;;17.13;11.82;;;21.00;98.10;;;;;;5062481;28;20045;-76
2022/05/05 12:21:53;;;;;;;20.02;13.68;;;21.10;98.00;;;;;;5063695;28;20109;-76
2022/05/05 12:24:22;;;;;;;18.33;13.02;;;21.10;97.80;;;;;;5064458;28;20072;-76
2022/05/05 12:26:48;;;;;;;17.85;12.98;;;21.20;98.00;;;;;;5046293;28;20045;-76
2022/05/05 12:29:15;;;;;;;16.05;12.07;;;21.30;97.90;;;;;;5081134;28;20055;-76
2022/05/05 12:31:54;;;;;;;14.95;11.77;;;21.40;97.70;;;;;;5064385;28;20049;-75
2022/05/05 12:34:27;;;;;;;17.02;12.57;;;21.50;97.60;;;;;;5048123;28;20052;-74
2022/05/05 12:37:09;;;;;;;18.58;13.48;;;21.40;97.60;;;;;;5047311;28;20099;-76
2022/05/05 12:39:47;;;;;;;20.15;14.50;;;21.40;97.20;;;;;;5030221;28;20476;-76
2022/05/05 12:42:14;;;;;;;18.75;15.02;;;21.50;97.50;;;;;;5049112;28;20049;-76
2022/05/05 12:44:45;;;;;;;18.08;15.38;;;21.40;97.10;;;;;;5063614;28;20132;-74
2022/05/05 12:47:11;;;;;;;21.23;14.45;;;21.50;97.10;;;;;;5047980;28;20144;-75
2022/05/05 12:49:38;;;;;;;18.05;14.75;;;21.60;97.10;;;;;;5048598;28;20052;-76
2022/05/05 12:52:05;;;;;;;21.58;16.30;;;21.60;97.00;;;;;;5079735;28;20055;-76
2022/05/05 13:00:03;;;;;;;21.63;15.57;;;21.40;96.90;;;;;;5046589;28;20064;-76
2022/05/05 13:02:29;;;;;;;20.55;15.85;;;21.60;96.80;;;;;;5080178;28;20045;-75
2022/05/05 13:04:55;;;;;;;18.73;14.65;;;21.60;96.80;;;;;;5080167;28;20049;-76
2022/05/05 13:07:23;;;;;;;21.80;15.75;;;21.60;96.90;;;;;;5032647;28;20056;-76
2022/05/05 13:09:50;;;;;;;20.05;14.43;;;21.40;96.80;;;;;;5040542;28;20079;-75
2022/05/05 13:12:16;;;;;;;21.33;14.90;;;21.40;97.20;;;;;;5014300;28;20052;-75
2022/05/05 13:14:41;;;;;;;19.45;14.48;;;21.30;97.00;;;;;;5047088;28;20453;-75
2022/05/05 13:17:07;;;;;;;19.35;13.93;;;21.30;97.20;;;;;;5065123;28;20053;-75
2022/05/05 13:19:33;;;;;;;18.33;14.23;;;21.50;97.10;;;;;;5030763;28;20402;-76
2022/05/05 13:21:59;;;;;;;16.77;13.57;;;21.50;96.70;;;;;;5029453;28;20037;-76
2022/05/05 13:24:25;;;;;;;17.67;14.55;;;21.80;96.80;;;;;;5082329;28;20064;-77
2022/05/05 13:26:51;;;;;;;22.10;15.70;;;21.80;96.50;;;;;;5060140;28;20144;-75
2022/05/05 13:29:16;;;;;;;19.02;15.05;;;21.80;96.40;;;;;;5069211;28;20052;-75
2022/05/05 13:31:42;;;;;;;18.95;14.45;;;21.60;96.20;;;;;;5050507;28;20088;-76
2022/05/05 13:34:08;;;;;;;18.50;14.68;;;21.40;96.30;;;;;;5061881;28;20470;-75
2022/05/05 13:36:38;;;;;;;17.58;14.50;;;21.40;96.40;;;;;;5051025;28;20056;-75